Golf 4 Klub Polska

Golf 4 Klub Polska

Ogłoszenie


Silniki LPG

Wątek Odpowiedzi Odsłony Ostatni post
Ten wątek jest zamknięty Przyklejony
Przyklejony: Regulamin przez piotr
0 4341 2009-10-25 23:13:08 przez piotr
Dziwna maż na korku oleju przez Daawid30
5 2931 2018-03-06 12:55:17 przez joneq11
1 494 2018-02-22 13:01:18 przez kayus11
17 2082 2017-11-29 12:33:12 przez joneq11
0 299 2017-10-01 12:38:20 przez DISCONNECT
moc 1.6 8v przez grzesiek910213
11 2449 2017-06-21 23:01:49 przez jarazm
2 668 2017-06-04 14:44:27 przez woncki8
9 1344 2017-05-23 17:50:16 przez ThepaFFcio
0 393 2017-04-13 13:37:48 przez Rajzel
Silnik 1.4 16v przez dcwanek
1 716 2017-03-27 08:20:02 przez hayosar
3 853 2017-02-06 19:46:26 przez andrew2805
0 738 2017-01-10 13:07:08 przez rafalzibi
wymiana przewodów zapłonowych. przez kamil1986_to
0 663 2016-12-28 18:44:14 przez kamil1986_to
1 906 2016-12-22 09:56:30 przez drakon3
Pomocy z parametrami sprzętu. przez MarcinSkaza
1 889 2016-12-22 09:45:38 przez drakon3
cewka i kable przez kamil1986_to
2 847 2016-11-30 08:40:11 przez kamil1986_to
Pomocy z parametrami sprzętu. przez MarcinSkaza
0 624 2016-10-09 13:26:50 przez MarcinSkaza
Pompa wspomagania przez tom318
0 805 2016-09-22 20:03:37 przez tom318
0 817 2016-09-19 01:13:27 przez maciuuuu
szarpanie gazem przez ewka1222222@wp.pl
0 889 2016-08-08 09:33:56 przez ewka1222222@wp.pl
1 941 2016-08-08 09:23:45 przez ewka1222222@wp.pl
Filtry przez ukaszp
8 3357 2016-05-29 17:37:08 przez woloszyng
7 1725 2016-05-11 20:26:43 przez MarcinSkaza
1 1522 2016-05-07 08:35:44 przez MarcinSkaza
Skasowanie przeglądu STAG przez adrpic164
0 1304 2016-03-01 23:44:46 przez adrpic164
10 3425 2016-01-28 14:52:54 przez smerfetka
28 29919 2015-12-18 14:20:23 przez kolunio21
2 1543 2015-12-06 17:23:09 przez marek1405
17 5936 2015-11-14 17:49:07 przez smerfetka
Problem z LPG przez MarcinSkaza
36 4101 2015-10-29 21:35:09 przez MarcinSkaza
Skoki temperatury przez smerfetka
9 2365 2015-10-06 17:59:49 przez kane
3 1705 2015-09-29 18:27:26 przez smerfetka
0 1472 2015-09-28 21:08:16 przez ebii90
Katalizator przez kristo19921
4 1714 2015-09-18 13:28:36 przez kristo19921
1 1558 2015-09-13 13:32:39 przez TataNka
3 1833 2015-08-29 16:11:41 przez kane
Problem z mocą i spalaniem przez Grzybek756
1 1586 2015-07-28 13:28:49 przez kowal9215
abgas werkstatt+ check przez Zawilka
4 1872 2015-07-19 17:06:58 przez Zawilka
Jaki olej do 1.6SR LPG przez Hydyne
6 2521 2015-07-08 15:55:57 przez TataNka
1.8t - Lpg przez sodlerr12
2 1706 2015-07-06 16:17:47 przez TataNka
problem na rozgrzanym przez andrew2805
0 1475 2015-06-29 18:44:13 przez andrew2805
5 3787 2015-05-13 01:17:58 przez KRPaulo
1 1865 2015-04-01 20:55:42 przez manx
3 2064 2015-04-01 20:52:57 przez manx
Wydech.. przez martines11
4 1928 2015-03-29 12:57:29 przez TataNka
falujące obroty silnika 1,6SR przez bartek1080
11 5974 2015-03-06 21:31:57 przez Goldi_Cz-wa
Nie osiąga 90 stopni przez Ciosek
12 4988 2015-02-13 18:05:31 przez Ciosek
wchodzi na obroty przez Grzybek756
3 2075 2015-01-31 11:46:47 przez Duchu
17 16662 2015-01-20 05:14:09 przez Ciosek
2 1991 2015-01-15 10:30:23 przez Pan_W12
5 2484 2015-01-10 04:55:16 przez Ciosek
4 5131 2015-01-02 16:32:44 przez Ciosek
5 2633 2014-11-29 12:42:05 przez TataNka
1 2083 2014-11-14 19:54:33 przez achtung
Dławienie po dodaniu gazu:-( przez MarcinSkaza
1 2179 2014-11-12 17:32:40 przez Ciosek
1 2249 2014-11-03 11:33:30 przez Hydyne
problem z gazem przez Grzybek756
4 2409 2014-10-22 18:10:50 przez lukker
3 2891 2014-10-20 16:51:20 przez Marcinsdf
Silnik bierze sporo oleju przez pawex11
12 5141 2014-10-20 01:04:32 przez Matheo
0 1953 2014-10-05 13:31:18 przez Fabek.666

Stopka forum

RSS
Powered by PunBB
© Copyright 2002–2008 PunBB
Polityka cookies - Wersja Lo-Fi


Darmowe Forum | Ciekawe Fora | Darmowe Fora
real money lenders randewu.info.pl penirium opinie www.lazienki.edu.pl klej do luster wpoznaniuspa.pl mezoterapia poznań Gotowe spółki Poznań skup złomu Piła